sensor_id;sensor_type;location;lat;lon;timestamp;temperature;humidity
27795;DHT22;15176;50.844;4.412;2023-04-01T00:00:53;10.80;99.90
27795;DHT22;15176;50.844;4.412;2023-04-01T00:03:20;10.80;99.90
27795;DHT22;15176;50.844;4.412;2023-04-01T00:05:46;11.00;99.90
27795;DHT22;15176;50.844;4.412;2023-04-01T00:08:12;10.90;99.90
27795;DHT22;15176;50.844;4.412;2023-04-01T00:10:38;10.90;99.90
27795;DHT22;15176;50.844;4.412;2023-04-01T00:13:04;11.00;99.90
27795;DHT22;15176;50.844;4.412;2023-04-01T00:15:30;10.80;99.90
27795;DHT22;15176;50.844;4.412;2023-04-01T00:17:55;10.70;99.90
27795;DHT22;15176;50.844;4.412;2023-04-01T00:20:21;10.70;99.90
27795;DHT22;15176;50.844;4.412;2023-04-01T00:22:47;10.70;99.90
27795;DHT22;15176;50.844;4.412;2023-04-01T00:25:14;10.90;99.90
27795;DHT22;15176;50.844;4.412;2023-04-01T00:27:40;10.80;99.90
27795;DHT22;15176;50.844;4.412;2023-04-01T00:30:07;10.90;99.90
27795;DHT22;15176;50.844;4.412;2023-04-01T00:32:33;10.70;99.90
27795;DHT22;15176;50.844;4.412;2023-04-01T00:34:59;10.70;99.90
27795;DHT22;15176;50.844;4.412;2023-04-01T00:37:26;10.70;99.90
27795;DHT22;15176;50.844;4.412;2023-04-01T00:39:52;10.70;99.90
27795;DHT22;15176;50.844;4.412;2023-04-01T00:42:18;10.50;99.90
27795;DHT22;15176;50.844;4.412;2023-04-01T00:44:53;10.60;99.90
27795;DHT22;15176;50.844;4.412;2023-04-01T00:47:19;10.60;99.90
27795;DHT22;15176;50.844;4.412;2023-04-01T00:49:50;10.70;99.90
27795;DHT22;15176;50.844;4.412;2023-04-01T00:52:19;10.70;99.90
27795;DHT22;15176;50.844;4.412;2023-04-01T00:54:47;10.60;99.90
27795;DHT22;15176;50.844;4.412;2023-04-01T00:57:23;10.60;99.90
27795;DHT22;15176;50.844;4.412;2023-04-01T00:59:54;10.60;99.90
27795;DHT22;15176;50.844;4.412;2023-04-01T01:02:21;10.70;99.90
27795;DHT22;15176;50.844;4.412;2023-04-01T01:04:47;10.70;99.90
27795;DHT22;15176;50.844;4.412;2023-04-01T01:07:20;10.80;99.90
27795;DHT22;15176;50.844;4.412;2023-04-01T01:12:45;10.80;99.90
27795;DHT22;15176;50.844;4.412;2023-04-01T01:15:36;10.80;99.90
27795;DHT22;15176;50.844;4.412;2023-04-01T01:18:18;10.70;99.90
27795;DHT22;15176;50.844;4.412;2023-04-01T01:24:43;10.70;99.90
27795;DHT22;15176;50.844;4.412;2023-04-01T01:27:16;10.70;99.90
27795;DHT22;15176;50.844;4.412;2023-04-01T01:35:58;10.50;99.90
27795;DHT22;15176;50.844;4.412;2023-04-01T01:38:29;10.60;99.90
27795;DHT22;15176;50.844;4.412;2023-04-01T01:40:56;10.60;99.90
27795;DHT22;15176;50.844;4.412;2023-04-01T01:43:36;10.60;99.90
27795;DHT22;15176;50.844;4.412;2023-04-01T01:46:11;10.60;99.90
27795;DHT22;15176;50.844;4.412;2023-04-01T01:48:40;10.60;99.90
27795;DHT22;15176;50.844;4.412;2023-04-01T01:51:07;10.50;99.90
27795;DHT22;15176;50.844;4.412;2023-04-01T01:53:33;10.60;99.90
27795;DHT22;15176;50.844;4.412;2023-04-01T01:55:59;10.90;99.90
27795;DHT22;15176;50.844;4.412;2023-04-01T01:58:33;10.80;99.90
27795;DHT22;15176;50.844;4.412;2023-04-01T02:01:09;10.70;99.90
27795;DHT22;15176;50.844;4.412;2023-04-01T02:03:39;10.60;99.90
27795;DHT22;15176;50.844;4.412;2023-04-01T02:06:08;10.60;99.90
27795;DHT22;15176;50.844;4.412;2023-04-01T02:08:58;10.60;99.90
27795;DHT22;15176;50.844;4.412;2023-04-01T02:11:32;10.60;99.90
27795;DHT22;15176;50.844;4.412;2023-04-01T02:14:05;10.50;99.90
27795;DHT22;15176;50.844;4.412;2023-04-01T02:16:45;10.40;99.90
27795;DHT22;15176;50.844;4.412;2023-04-01T02:19:13;10.40;99.90
27795;DHT22;15176;50.844;4.412;2023-04-01T02:21:41;10.40;99.90
27795;DHT22;15176;50.844;4.412;2023-04-01T02:24:12;10.50;99.90
27795;DHT22;15176;50.844;4.412;2023-04-01T02:26:39;10.50;99.90
27795;DHT22;15176;50.844;4.412;2023-04-01T02:29:06;10.40;99.90
27795;DHT22;15176;50.844;4.412;2023-04-01T02:31:32;10.40;99.90
27795;DHT22;15176;50.844;4.412;2023-04-01T02:33:58;10.50;99.90
27795;DHT22;15176;50.844;4.412;2023-04-01T02:36:24;10.60;99.90
27795;DHT22;15176;50.844;4.412;2023-04-01T02:38:51;10.70;99.90
27795;DHT22;15176;50.844;4.412;2023-04-01T02:41:17;10.40;99.90
27795;DHT22;15176;50.844;4.412;2023-04-01T02:43:43;10.30;99.90
27795;DHT22;15176;50.844;4.412;2023-04-01T02:46:09;10.50;99.90
27795;DHT22;15176;50.844;4.412;2023-04-01T02:48:35;10.50;99.90
27795;DHT22;15176;50.844;4.412;2023-04-01T02:51:00;10.50;99.90
27795;DHT22;15176;50.844;4.412;2023-04-01T02:53:26;10.40;99.90
27795;DHT22;15176;50.844;4.412;2023-04-01T02:55:52;10.40;99.90
27795;DHT22;15176;50.844;4.412;2023-04-01T02:58:18;10.40;99.90
27795;DHT22;15176;50.844;4.412;2023-04-01T03:00:44;10.40;99.90
27795;DHT22;15176;50.844;4.412;2023-04-01T03:03:10;10.40;99.90
27795;DHT22;15176;50.844;4.412;2023-04-01T03:05:36;10.50;99.90
27795;DHT22;15176;50.844;4.412;2023-04-01T03:08:02;10.80;99.90
27795;DHT22;15176;50.844;4.412;2023-04-01T03:10:28;10.70;99.90
27795;DHT22;15176;50.844;4.412;2023-04-01T03:12:54;10.60;99.90
27795;DHT22;15176;50.844;4.412;2023-04-01T03:15:19;10.50;99.90
27795;DHT22;15176;50.844;4.412;2023-04-01T03:17:46;10.50;99.90
27795;DHT22;15176;50.844;4.412;2023-04-01T03:20:12;10.70;99.90
27795;DHT22;15176;50.844;4.412;2023-04-01T03:22:38;10.60;99.90
27795;DHT22;15176;50.844;4.412;2023-04-01T03:25:05;10.50;99.90
27795;DHT22;15176;50.844;4.412;2023-04-01T03:27:31;10.50;99.90
27795;DHT22;15176;50.844;4.412;2023-04-01T03:29:57;10.60;99.90
27795;DHT22;15176;50.844;4.412;2023-04-01T03:32:24;10.60;99.90
27795;DHT22;15176;50.844;4.412;2023-04-01T03:34:49;10.80;99.90
27795;DHT22;15176;50.844;4.412;2023-04-01T03:37:15;10.80;99.90
27795;DHT22;15176;50.844;4.412;2023-04-01T03:39:41;10.80;99.90
27795;DHT22;15176;50.844;4.412;2023-04-01T03:42:06;10.60;99.90
27795;DHT22;15176;50.844;4.412;2023-04-01T03:44:35;10.40;99.90
27795;DHT22;15176;50.844;4.412;2023-04-01T03:47:01;10.30;99.90
27795;DHT22;15176;50.844;4.412;2023-04-01T03:49:27;10.60;99.90
27795;DHT22;15176;50.844;4.412;2023-04-01T03:51:52;10.50;99.90
27795;DHT22;15176;50.844;4.412;2023-04-01T03:54:21;10.40;99.90
27795;DHT22;15176;50.844;4.412;2023-04-01T03:56:47;10.50;99.90
27795;DHT22;15176;50.844;4.412;2023-04-01T03:59:13;10.50;99.90
27795;DHT22;15176;50.844;4.412;2023-04-01T04:01:39;10.40;99.90
27795;DHT22;15176;50.844;4.412;2023-04-01T04:04:05;10.40;99.90
27795;DHT22;15176;50.844;4.412;2023-04-01T04:06:31;10.40;99.90
27795;DHT22;15176;50.844;4.412;2023-04-01T04:08:58;10.40;99.90
27795;DHT22;15176;50.844;4.412;2023-04-01T04:11:23;10.50;99.90
27795;DHT22;15176;50.844;4.412;2023-04-01T04:13:49;10.40;99.90
27795;DHT22;15176;50.844;4.412;2023-04-01T04:16:16;10.40;99.90
27795;DHT22;15176;50.844;4.412;2023-04-01T04:18:42;10.40;99.90
27795;DHT22;15176;50.844;4.412;2023-04-01T04:21:12;10.30;99.90
27795;DHT22;15176;50.844;4.412;2023-04-01T04:23:39;10.50;99.90
27795;DHT22;15176;50.844;4.412;2023-04-01T04:26:10;10.40;99.90
27795;DHT22;15176;50.844;4.412;2023-04-01T04:28:36;10.40;99.90
27795;DHT22;15176;50.844;4.412;2023-04-01T04:31:03;10.30;99.90
27795;DHT22;15176;50.844;4.412;2023-04-01T04:33:30;10.30;99.90
27795;DHT22;15176;50.844;4.412;2023-04-01T04:35:58;10.40;99.90
27795;DHT22;15176;50.844;4.412;2023-04-01T04:38:24;10.40;99.90
27795;DHT22;15176;50.844;4.412;2023-04-01T04:40:50;10.50;99.90
27795;DHT22;15176;50.844;4.412;2023-04-01T04:43:17;10.60;99.90
27795;DHT22;15176;50.844;4.412;2023-04-01T04:45:43;10.60;99.90
27795;DHT22;15176;50.844;4.412;2023-04-01T04:48:10;10.40;99.90
27795;DHT22;15176;50.844;4.412;2023-04-01T04:50:40;10.40;99.90
27795;DHT22;15176;50.844;4.412;2023-04-01T04:53:05;10.30;99.90
27795;DHT22;15176;50.844;4.412;2023-04-01T04:55:31;10.20;99.90
27795;DHT22;15176;50.844;4.412;2023-04-01T04:57:57;10.30;99.90
27795;DHT22;15176;50.844;4.412;2023-04-01T05:00:22;10.30;99.90
27795;DHT22;15176;50.844;4.412;2023-04-01T05:02:48;10.20;99.90
27795;DHT22;15176;50.844;4.412;2023-04-01T05:05:14;10.20;99.90
27795;DHT22;15176;50.844;4.412;2023-04-01T05:07:40;10.30;99.90
27795;DHT22;15176;50.844;4.412;2023-04-01T05:10:06;10.30;99.90
27795;DHT22;15176;50.844;4.412;2023-04-01T05:12:32;10.20;99.90
27795;DHT22;15176;50.844;4.412;2023-04-01T05:15:03;10.30;99.90
27795;DHT22;15176;50.844;4.412;2023-04-01T05:17:29;10.30;99.90
27795;DHT22;15176;50.844;4.412;2023-04-01T05:19:55;10.30;99.90
27795;DHT22;15176;50.844;4.412;2023-04-01T05:22:21;10.40;99.90
27795;DHT22;15176;50.844;4.412;2023-04-01T05:24:47;10.30;99.90
27795;DHT22;15176;50.844;4.412;2023-04-01T05:27:12;10.40;99.90
27795;DHT22;15176;50.844;4.412;2023-04-01T05:29:38;10.40;99.90
27795;DHT22;15176;50.844;4.412;2023-04-01T05:32:04;10.30;99.90
27795;DHT22;15176;50.844;4.412;2023-04-01T05:34:30;10.40;99.90
27795;DHT22;15176;50.844;4.412;2023-04-01T05:36:55;10.30;99.90
27795;DHT22;15176;50.844;4.412;2023-04-01T05:39:21;10.30;99.90
27795;DHT22;15176;50.844;4.412;2023-04-01T05:41:47;10.20;99.90
27795;DHT22;15176;50.844;4.412;2023-04-01T05:44:12;10.10;99.90
27795;DHT22;15176;50.844;4.412;2023-04-01T05:46:38;10.20;99.90
27795;DHT22;15176;50.844;4.412;2023-04-01T05:49:04;10.40;99.90
27795;DHT22;15176;50.844;4.412;2023-04-01T05:51:29;10.40;99.90
27795;DHT22;15176;50.844;4.412;2023-04-01T05:53:55;10.30;99.90
27795;DHT22;15176;50.844;4.412;2023-04-01T05:56:21;10.30;99.90
27795;DHT22;15176;50.844;4.412;2023-04-01T05:58:50;10.20;99.90
27795;DHT22;15176;50.844;4.412;2023-04-01T06:01:17;10.30;99.90
27795;DHT22;15176;50.844;4.412;2023-04-01T06:03:44;10.30;99.90
27795;DHT22;15176;50.844;4.412;2023-04-01T06:06:24;10.30;99.90
27795;DHT22;15176;50.844;4.412;2023-04-01T06:08:51;10.40;99.90
27795;DHT22;15176;50.844;4.412;2023-04-01T06:14:24;10.40;99.90
27795;DHT22;15176;50.844;4.412;2023-04-01T06:22:06;10.40;99.90
27795;DHT22;15176;50.844;4.412;2023-04-01T06:30:30;10.50;99.90
27795;DHT22;15176;50.844;4.412;2023-04-01T06:38:35;10.50;99.90
27795;DHT22;15176;50.844;4.412;2023-04-01T06:41:13;10.30;99.90
27795;DHT22;15176;50.844;4.412;2023-04-01T06:50:25;10.50;99.90
27795;DHT22;15176;50.844;4.412;2023-04-01T06:55:47;10.30;99.90
27795;DHT22;15176;50.844;4.412;2023-04-01T06:58:43;10.30;99.90
27795;DHT22;15176;50.844;4.412;2023-04-01T07:01:12;10.30;99.90
27795;DHT22;15176;50.844;4.412;2023-04-01T07:03:43;10.20;99.90
27795;DHT22;15176;50.844;4.412;2023-04-01T07:06:14;10.40;99.90
27795;DHT22;15176;50.844;4.412;2023-04-01T07:08:43;10.30;99.90
27795;DHT22;15176;50.844;4.412;2023-04-01T07:11:22;10.20;99.90
27795;DHT22;15176;50.844;4.412;2023-04-01T07:13:58;10.20;99.90
27795;DHT22;15176;50.844;4.412;2023-04-01T07:16:45;10.20;99.90
27795;DHT22;15176;50.844;4.412;2023-04-01T07:20:02;10.40;99.90
27795;DHT22;15176;50.844;4.412;2023-04-01T07:24:48;10.20;99.90
27795;DHT22;15176;50.844;4.412;2023-04-01T07:27:14;10.20;99.90
27795;DHT22;15176;50.844;4.412;2023-04-01T07:29:41;10.40;99.90
27795;DHT22;15176;50.844;4.412;2023-04-01T07:37:46;10.60;99.90
27795;DHT22;15176;50.844;4.412;2023-04-01T07:53:56;10.70;99.90
27795;DHT22;15176;50.844;4.412;2023-04-01T07:56:33;10.60;99.90
27795;DHT22;15176;50.844;4.412;2023-04-01T08:02:22;10.70;99.90
27795;DHT22;15176;50.844;4.412;2023-04-01T08:04:56;10.80;99.90
27795;DHT22;15176;50.844;4.412;2023-04-01T08:10:53;11.10;99.90
27795;DHT22;15176;50.844;4.412;2023-04-01T08:16:42;10.80;99.90
27795;DHT22;15176;50.844;4.412;2023-04-01T08:19:30;11.00;99.90
27795;DHT22;15176;50.844;4.412;2023-04-01T08:22:01;11.00;99.90
27795;DHT22;15176;50.844;4.412;2023-04-01T08:24:34;10.90;99.90
27795;DHT22;15176;50.844;4.412;2023-04-01T08:27:06;11.00;99.90
27795;DHT22;15176;50.844;4.412;2023-04-01T08:29:41;10.90;99.90
27795;DHT22;15176;50.844;4.412;2023-04-01T08:32:32;10.80;99.90
27795;DHT22;15176;50.844;4.412;2023-04-01T08:35:17;10.70;99.90
27795;DHT22;15176;50.844;4.412;2023-04-01T08:37:44;10.80;99.90
27795;DHT22;15176;50.844;4.412;2023-04-01T08:54:20;10.70;99.90
27795;DHT22;15176;50.844;4.412;2023-04-01T09:06:10;10.90;99.90
27795;DHT22;15176;50.844;4.412;2023-04-01T09:19:54;10.70;99.90
27795;DHT22;15176;50.844;4.412;2023-04-01T09:30:33;11.00;99.90
27795;DHT22;15176;50.844;4.412;2023-04-01T09:33:42;10.90;99.90
27795;DHT22;15176;50.844;4.412;2023-04-01T09:36:33;11.00;99.90
27795;DHT22;15176;50.844;4.412;2023-04-01T09:50:23;11.00;99.90
27795;DHT22;15176;50.844;4.412;2023-04-01T09:58:50;11.30;99.90
27795;DHT22;15176;50.844;4.412;2023-04-01T10:15:29;11.20;99.90
27795;DHT22;15176;50.844;4.412;2023-04-01T10:18:46;11.30;99.90
27795;DHT22;15176;50.844;4.412;2023-04-01T10:54:52;12.00;99.90
27795;DHT22;15176;50.844;4.412;2023-04-01T11:08:48;11.90;99.90
27795;DHT22;15176;50.844;4.412;2023-04-01T11:33:57;11.80;99.90
27795;DHT22;15176;50.844;4.412;2023-04-01T11:50:23;11.70;99.90
27795;DHT22;15176;50.844;4.412;2023-04-01T11:55:50;11.80;99.90
27795;DHT22;15176;50.844;4.412;2023-04-01T12:10:12;11.80;99.90
27795;DHT22;15176;50.844;4.412;2023-04-01T12:13:02;11.90;99.90
27795;DHT22;15176;50.844;4.412;2023-04-01T12:42:24;11.70;99.90
27795;DHT22;15176;50.844;4.412;2023-04-01T12:55:54;11.20;99.90
27795;DHT22;15176;50.844;4.412;2023-04-01T13:01:30;11.60;99.90
27795;DHT22;15176;50.844;4.412;2023-04-01T13:15:13;11.50;99.90
27795;DHT22;15176;50.844;4.412;2023-04-01T13:20:36;11.70;99.90
27795;DHT22;15176;50.844;4.412;2023-04-01T13:28:24;11.70;99.90
27795;DHT22;15176;50.844;4.412;2023-04-01T13:33:50;11.40;99.90
27795;DHT22;15176;50.844;4.412;2023-04-01T13:42:43;11.50;99.90
27795;DHT22;15176;50.844;4.412;2023-04-01T13:53:30;11.60;99.90
27795;DHT22;15176;50.844;4.412;2023-04-01T13:59:00;11.90;99.90
27795;DHT22;15176;50.844;4.412;2023-04-01T14:10:54;11.50;99.90
27795;DHT22;15176;50.844;4.412;2023-04-01T14:38:04;11.70;99.90
27795;DHT22;15176;50.844;4.412;2023-04-01T14:44:11;11.80;99.90
27795;DHT22;15176;50.844;4.412;2023-04-01T14:49:46;12.00;99.90
27795;DHT22;15176;50.844;4.412;2023-04-01T14:52:27;11.60;99.90
27795;DHT22;15176;50.844;4.412;2023-04-01T14:54:54;11.80;99.90
27795;DHT22;15176;50.844;4.412;2023-04-01T14:57:27;11.50;99.90
27795;DHT22;15176;50.844;4.412;2023-04-01T15:00:16;11.50;99.90
27795;DHT22;15176;50.844;4.412;2023-04-01T15:02:58;11.50;99.90
27795;DHT22;15176;50.844;4.412;2023-04-01T15:08:27;11.60;99.90
27795;DHT22;15176;50.844;4.412;2023-04-01T15:11:01;11.70;99.90
27795;DHT22;15176;50.844;4.412;2023-04-01T15:16:27;11.70;99.90
27795;DHT22;15176;50.844;4.412;2023-04-01T15:24:24;11.40;99.90
27795;DHT22;15176;50.844;4.412;2023-04-01T15:30:12;11.30;99.90
27795;DHT22;15176;50.844;4.412;2023-04-01T15:33:20;11.50;99.90
27795;DHT22;15176;50.844;4.412;2023-04-01T15:43:56;11.40;99.90
27795;DHT22;15176;50.844;4.412;2023-04-01T15:46:46;11.20;99.90
27795;DHT22;15176;50.844;4.412;2023-04-01T15:51:48;11.30;99.90
27795;DHT22;15176;50.844;4.412;2023-04-01T15:57:20;11.20;99.90
27795;DHT22;15176;50.844;4.412;2023-04-01T16:12:00;10.90;99.90
27795;DHT22;15176;50.844;4.412;2023-04-01T16:25:41;11.40;99.90
27795;DHT22;15176;50.844;4.412;2023-04-01T16:28:50;11.20;99.90
27795;DHT22;15176;50.844;4.412;2023-04-01T16:31:50;11.20;99.90
27795;DHT22;15176;50.844;4.412;2023-04-01T16:37:07;11.30;99.90
27795;DHT22;15176;50.844;4.412;2023-04-01T16:47:27;10.80;99.90
27795;DHT22;15176;50.844;4.412;2023-04-01T16:55:18;10.60;99.90
27795;DHT22;15176;50.844;4.412;2023-04-01T16:57:51;10.90;99.90
27795;DHT22;15176;50.844;4.412;2023-04-01T17:03:36;10.80;99.90
27795;DHT22;15176;50.844;4.412;2023-04-01T17:06:42;10.80;99.90
27795;DHT22;15176;50.844;4.412;2023-04-01T17:12:04;10.80;99.90
27795;DHT22;15176;50.844;4.412;2023-04-01T17:20:25;10.90;99.90
27795;DHT22;15176;50.844;4.412;2023-04-01T17:28:50;10.80;99.90
27795;DHT22;15176;50.844;4.412;2023-04-01T17:31:32;10.80;99.90
27795;DHT22;15176;50.844;4.412;2023-04-01T17:34:41;11.00;99.90
27795;DHT22;15176;50.844;4.412;2023-04-01T17:42:31;11.20;99.90
27795;DHT22;15176;50.844;4.412;2023-04-01T17:45:18;11.10;99.90
27795;DHT22;15176;50.844;4.412;2023-04-01T17:53:42;11.20;99.90
27795;DHT22;15176;50.844;4.412;2023-04-01T17:56:38;11.20;99.90
27795;DHT22;15176;50.844;4.412;2023-04-01T17:59:38;11.00;99.90
27795;DHT22;15176;50.844;4.412;2023-04-01T18:02:39;10.80;99.90
27795;DHT22;15176;50.844;4.412;2023-04-01T18:08:23;10.90;99.90
27795;DHT22;15176;50.844;4.412;2023-04-01T18:24:43;11.10;99.90
27795;DHT22;15176;50.844;4.412;2023-04-01T18:27:23;11.30;99.90
27795;DHT22;15176;50.844;4.412;2023-04-01T18:30:07;11.20;99.90
27795;DHT22;15176;50.844;4.412;2023-04-01T18:32:53;11.40;99.90
27795;DHT22;15176;50.844;4.412;2023-04-01T18:38:28;11.50;99.90
27795;DHT22;15176;50.844;4.412;2023-04-01T18:46:52;10.90;99.90
27795;DHT22;15176;50.844;4.412;2023-04-01T18:49:43;10.90;99.90
27795;DHT22;15176;50.844;4.412;2023-04-01T18:58:22;11.20;99.90
27795;DHT22;15176;50.844;4.412;2023-04-01T19:27:53;10.80;99.90
27795;DHT22;15176;50.844;4.412;2023-04-01T19:30:42;10.90;99.90
27795;DHT22;15176;50.844;4.412;2023-04-01T19:36:08;10.80;99.90
27795;DHT22;15176;50.844;4.412;2023-04-01T19:38:40;10.90;99.90
27795;DHT22;15176;50.844;4.412;2023-04-01T19:49:06;10.70;99.90
27795;DHT22;15176;50.844;4.412;2023-04-01T19:54:50;10.80;99.90
27795;DHT22;15176;50.844;4.412;2023-04-01T20:00:15;11.10;99.90
27795;DHT22;15176;50.844;4.412;2023-04-01T20:05:35;11.10;99.90
27795;DHT22;15176;50.844;4.412;2023-04-01T20:13:47;11.20;99.90
27795;DHT22;15176;50.844;4.412;2023-04-01T20:16:15;11.10;99.90
27795;DHT22;15176;50.844;4.412;2023-04-01T20:18:52;11.00;99.90
27795;DHT22;15176;50.844;4.412;2023-04-01T20:21:41;11.00;99.90
27795;DHT22;15176;50.844;4.412;2023-04-01T20:26:48;10.60;99.90
27795;DHT22;15176;50.844;4.412;2023-04-01T20:35:12;10.90;99.90
27795;DHT22;15176;50.844;4.412;2023-04-01T20:51:43;11.10;99.90
27795;DHT22;15176;50.844;4.412;2023-04-01T20:57:14;11.00;99.90
27795;DHT22;15176;50.844;4.412;2023-04-01T20:59:50;11.00;99.90
27795;DHT22;15176;50.844;4.412;2023-04-01T21:05:44;11.10;99.90
27795;DHT22;15176;50.844;4.412;2023-04-01T21:11:22;10.90;99.90
27795;DHT22;15176;50.844;4.412;2023-04-01T21:16:43;10.80;99.90
27795;DHT22;15176;50.844;4.412;2023-04-01T21:35:41;10.40;99.90
27795;DHT22;15176;50.844;4.412;2023-04-01T21:41:03;10.60;99.90
27795;DHT22;15176;50.844;4.412;2023-04-01T22:00:25;11.20;99.90
27795;DHT22;15176;50.844;4.412;2023-04-01T22:03:19;11.30;99.90
27795;DHT22;15176;50.844;4.412;2023-04-01T22:05:59;11.10;99.90
27795;DHT22;15176;50.844;4.412;2023-04-01T22:08:43;11.10;99.90
27795;DHT22;15176;50.844;4.412;2023-04-01T22:11:15;11.20;99.90
27795;DHT22;15176;50.844;4.412;2023-04-01T22:14:07;11.00;99.90
27795;DHT22;15176;50.844;4.412;2023-04-01T22:22:08;11.10;99.90
27795;DHT22;15176;50.844;4.412;2023-04-01T22:27:41;11.40;99.90
27795;DHT22;15176;50.844;4.412;2023-04-01T22:30:24;11.50;99.90
27795;DHT22;15176;50.844;4.412;2023-04-01T22:32:58;11.50;99.90
27795;DHT22;15176;50.844;4.412;2023-04-01T22:35:45;11.40;99.90
27795;DHT22;15176;50.844;4.412;2023-04-01T22:38:27;11.40;99.90
27795;DHT22;15176;50.844;4.412;2023-04-01T22:43:44;11.40;99.90
27795;DHT22;15176;50.844;4.412;2023-04-01T22:46:32;11.60;99.90
27795;DHT22;15176;50.844;4.412;2023-04-01T22:49:12;11.60;99.90
27795;DHT22;15176;50.844;4.412;2023-04-01T22:52:08;11.10;99.90
27795;DHT22;15176;50.844;4.412;2023-04-01T22:54:56;11.30;99.90
27795;DHT22;15176;50.844;4.412;2023-04-01T23:00:00;11.20;99.90
27795;DHT22;15176;50.844;4.412;2023-04-01T23:02:31;11.20;99.90
27795;DHT22;15176;50.844;4.412;2023-04-01T23:05:02;11.40;99.90
27795;DHT22;15176;50.844;4.412;2023-04-01T23:10:18;11.40;99.90
27795;DHT22;15176;50.844;4.412;2023-04-01T23:12:46;11.40;99.90
27795;DHT22;15176;50.844;4.412;2023-04-01T23:15:14;11.30;99.90
27795;DHT22;15176;50.844;4.412;2023-04-01T23:30:46;11.20;99.90
27795;DHT22;15176;50.844;4.412;2023-04-01T23:36:00;11.00;99.90
27795;DHT22;15176;50.844;4.412;2023-04-01T23:38:37;11.20;99.90
27795;DHT22;15176;50.844;4.412;2023-04-01T23:41:05;11.20;99.90
27795;DHT22;15176;50.844;4.412;2023-04-01T23:43:37;11.40;99.90
27795;DHT22;15176;50.844;4.412;2023-04-01T23:46:05;11.40;99.90
27795;DHT22;15176;50.844;4.412;2023-04-01T23:48:44;11.10;99.90
27795;DHT22;15176;50.844;4.412;2023-04-01T23:51:27;10.90;99.90
27795;DHT22;15176;50.844;4.412;2023-04-01T23:54:23;10.90;99.90
27795;DHT22;15176;50.844;4.412;2023-04-01T23:56:52;10.80;99.90
27795;DHT22;15176;50.844;4.412;2023-04-01T23:59:26;10.90;99.90
